createdAt,value
2019-03-16T00:01:23.881Z,12.40
2019-03-16T00:03:51.739Z,12.30
2019-03-16T00:06:18.697Z,12.20
2019-03-16T00:08:45.929Z,12.30
2019-03-16T00:11:14.805Z,12.30
2019-03-16T00:13:41.512Z,12.30
2019-03-16T00:16:09.251Z,12.30
2019-03-16T00:18:36.309Z,12.30
2019-03-16T00:21:03.434Z,12.30
2019-03-16T00:23:32.622Z,12.30
2019-03-16T00:25:59.681Z,12.20
2019-03-16T00:28:27.213Z,12.20
2019-03-16T00:30:56.468Z,12.00
2019-03-16T00:33:23.441Z,12.00
2019-03-16T00:35:50.587Z,12.00
2019-03-16T00:38:18.323Z,11.90
2019-03-16T00:40:45.859Z,11.80
2019-03-16T00:43:12.569Z,11.80
2019-03-16T00:45:39.301Z,12.00
2019-03-16T00:48:06.323Z,12.10
2019-03-16T00:50:33.467Z,12.20
2019-03-16T00:53:00.610Z,12.30
2019-03-16T00:55:27.630Z,12.30
2019-03-16T00:57:54.345Z,12.40
2019-03-16T01:00:22.550Z,12.50
2019-03-16T01:02:49.595Z,12.50
2019-03-16T01:05:16.702Z,12.60
2019-03-16T01:07:43.588Z,12.50
2019-03-16T01:10:10.827Z,12.60
2019-03-16T01:12:38.805Z,12.60
2019-03-16T01:15:10.517Z,12.60
2019-03-16T01:17:37.609Z,12.60
2019-03-16T01:20:07.623Z,12.70
2019-03-16T01:22:35.593Z,12.70
2019-03-16T01:25:04.817Z,12.70
2019-03-16T01:27:33.404Z,12.60
2019-03-16T01:30:00.792Z,12.50
2019-03-16T01:32:39.891Z,12.60
2019-03-16T01:34:59.511Z,12.60
2019-03-16T01:37:27.091Z,12.60
2019-03-16T01:39:55.621Z,12.70
2019-03-16T01:42:29.995Z,12.80
2019-03-16T01:44:57.103Z,12.80
2019-03-16T01:47:25.688Z,12.80
2019-03-16T01:49:55.641Z,12.90
2019-03-16T01:52:22.724Z,12.90
2019-03-16T01:54:57.697Z,13.00
2019-03-16T01:57:28.493Z,13.00
2019-03-16T01:59:56.914Z,13.10
2019-03-16T02:02:25.567Z,13.00
2019-03-16T02:04:52.745Z,13.00
2019-03-16T02:07:19.918Z,13.00
2019-03-16T02:09:46.874Z,12.90
2019-03-16T02:12:13.706Z,12.90
2019-03-16T02:14:40.952Z,13.00
2019-03-16T02:17:08.010Z,12.90
2019-03-16T02:19:36.101Z,12.90
2019-03-16T02:22:03.226Z,13.00
2019-03-16T02:24:31.905Z,12.90
2019-03-16T02:26:58.852Z,13.00
2019-03-16T02:29:26.015Z,13.00
2019-03-16T02:31:53.100Z,13.00
2019-03-16T02:34:19.996Z,13.00
2019-03-16T02:36:53.543Z,12.90
2019-03-16T02:39:20.437Z,12.80
2019-03-16T02:41:47.707Z,12.90
2019-03-16T02:44:15.658Z,13.00
2019-03-16T02:46:42.508Z,13.00
2019-03-16T02:49:09.650Z,12.90
2019-03-16T02:51:36.563Z,12.80
2019-03-16T02:54:03.342Z,12.80
2019-03-16T02:56:30.283Z,12.90
2019-03-16T02:58:57.204Z,12.80
2019-03-16T03:01:25.506Z,12.80
2019-03-16T03:03:52.744Z,12.90
2019-03-16T03:06:19.531Z,12.70
2019-03-16T03:08:46.604Z,12.60
2019-03-16T03:11:15.234Z,12.60
2019-03-16T03:13:42.174Z,12.70
2019-03-16T03:16:09.035Z,12.70
2019-03-16T03:18:35.958Z,12.60
2019-03-16T03:21:03.139Z,12.60
2019-03-16T03:23:29.994Z,12.60
2019-03-16T03:25:58.538Z,12.60
2019-03-16T03:28:25.745Z,12.60
2019-03-16T03:30:53.845Z,12.60
2019-03-16T03:33:20.975Z,12.60
2019-03-16T03:35:47.712Z,12.50
2019-03-16T03:38:14.513Z,12.40
2019-03-16T03:40:41.439Z,12.40
2019-03-16T03:43:08.579Z,12.50
2019-03-16T03:45:35.857Z,12.40
2019-03-16T03:48:02.796Z,12.50
2019-03-16T03:50:29.620Z,12.60
2019-03-16T03:52:58.305Z,12.60
2019-03-16T03:55:25.317Z,12.60
2019-03-16T03:57:52.228Z,12.50
2019-03-16T04:00:19.167Z,12.40
2019-03-16T04:02:46.082Z,12.40
2019-03-16T04:05:13.050Z,12.40
2019-03-16T04:07:40.184Z,12.50
2019-03-16T04:10:08.703Z,12.50
2019-03-16T04:12:35.587Z,12.40
2019-03-16T04:15:05.472Z,12.30
2019-03-16T04:17:32.470Z,12.30
2019-03-16T04:19:59.423Z,12.30
2019-03-16T04:22:26.991Z,12.30
2019-03-16T04:24:53.788Z,12.20
2019-03-16T04:27:20.898Z,12.20
2019-03-16T04:29:47.834Z,12.20
2019-03-16T04:32:15.868Z,12.20
2019-03-16T04:34:45.060Z,12.10
2019-03-16T04:37:13.363Z,12.10
2019-03-16T04:39:40.200Z,12.10
2019-03-16T04:42:07.050Z,12.10
2019-03-16T04:44:33.890Z,12.20
2019-03-16T04:47:02.006Z,12.20
2019-03-16T04:49:29.272Z,12.20
2019-03-16T04:51:56.500Z,12.20
2019-03-16T04:54:23.194Z,12.20
2019-03-16T04:56:50.128Z,12.10
2019-03-16T04:59:17.033Z,12.20
2019-03-16T05:01:43.864Z,12.20
2019-03-16T05:04:10.992Z,12.10
2019-03-16T05:06:37.681Z,12.10
2019-03-16T05:09:05.795Z,12.20
2019-03-16T05:11:33.058Z,12.20
2019-03-16T05:14:00.255Z,12.20
2019-03-16T05:16:27.155Z,12.20
2019-03-16T05:18:53.862Z,12.20
2019-03-16T05:21:22.828Z,12.10
2019-03-16T05:23:50.350Z,12.10
2019-03-16T05:26:18.022Z,12.20
2019-03-16T05:28:45.924Z,12.20
2019-03-16T05:31:12.726Z,12.20
2019-03-16T05:33:40.342Z,12.20
2019-03-16T05:36:07.254Z,12.20
2019-03-16T05:38:34.072Z,12.20
2019-03-16T05:41:01.221Z,12.10
2019-03-16T05:43:28.317Z,12.00
2019-03-16T05:45:55.034Z,12.10
2019-03-16T05:48:22.876Z,12.20
2019-03-16T05:50:49.750Z,12.10
2019-03-16T05:53:16.869Z,12.10
2019-03-16T05:55:43.748Z,12.10
2019-03-16T05:58:10.460Z,12.20
2019-03-16T06:00:37.602Z,12.20
2019-03-16T06:03:04.439Z,12.20
2019-03-16T06:05:31.486Z,12.00
2019-03-16T06:07:59.976Z,12.10
2019-03-16T06:10:26.884Z,12.00
2019-03-16T06:12:55.396Z,12.00
2019-03-16T06:15:22.330Z,12.00
2019-03-16T06:17:50.624Z,12.00
2019-03-16T06:20:17.640Z,12.10
2019-03-16T06:22:45.586Z,12.20
2019-03-16T06:25:14.150Z,12.20
2019-03-16T06:27:41.239Z,12.30
2019-03-16T06:30:12.846Z,12.30
2019-03-16T06:32:39.757Z,12.40
2019-03-16T06:35:07.302Z,12.50
2019-03-16T06:37:35.322Z,12.60
2019-03-16T06:40:02.997Z,12.50
2019-03-16T06:42:29.924Z,12.60
2019-03-16T06:44:57.074Z,12.60
2019-03-16T06:47:25.492Z,12.50
2019-03-16T06:49:53.122Z,12.50
2019-03-16T06:52:20.201Z,12.50
2019-03-16T06:54:46.886Z,12.60
2019-03-16T06:57:15.328Z,12.70
2019-03-16T06:59:42.500Z,12.60
2019-03-16T07:02:09.286Z,12.60
2019-03-16T07:04:36.378Z,12.60
2019-03-16T07:07:03.776Z,12.70
2019-03-16T07:09:30.464Z,12.70
2019-03-16T07:11:57.479Z,12.60
2019-03-16T07:14:24.401Z,12.50
2019-03-16T07:17:01.556Z,12.50
2019-03-16T07:19:21.751Z,12.40
2019-03-16T07:21:49.422Z,12.30
2019-03-16T07:24:16.542Z,12.40
2019-03-16T07:26:43.362Z,12.30
2019-03-16T07:29:10.404Z,12.30
2019-03-16T07:31:37.217Z,12.20
2019-03-16T07:34:05.612Z,12.30
2019-03-16T07:36:32.404Z,12.40
2019-03-16T07:39:00.953Z,12.40
2019-03-16T07:41:28.127Z,12.40
2019-03-16T07:43:54.950Z,12.50
2019-03-16T07:46:21.962Z,12.50
2019-03-16T07:48:49.094Z,12.60
2019-03-16T07:51:15.983Z,12.60
2019-03-16T07:53:42.908Z,12.60
2019-03-16T07:56:09.910Z,12.70
2019-03-16T07:58:36.845Z,12.80
2019-03-16T08:01:03.743Z,12.80
2019-03-16T08:03:30.782Z,12.70
2019-03-16T08:05:57.694Z,12.80
2019-03-16T08:08:24.612Z,12.80
2019-03-16T08:10:51.747Z,12.80
2019-03-16T08:13:18.463Z,12.80
2019-03-16T08:15:45.217Z,12.80
2019-03-16T08:18:12.560Z,12.60
2019-03-16T08:20:39.357Z,12.70
2019-03-16T08:23:06.402Z,12.70
2019-03-16T08:25:33.396Z,12.70
2019-03-16T08:28:00.252Z,12.70
2019-03-16T08:30:27.177Z,12.70
2019-03-16T08:32:54.354Z,12.70
2019-03-16T08:35:21.274Z,12.80
2019-03-16T08:37:48.491Z,12.80
2019-03-16T08:40:15.316Z,12.80
2019-03-16T08:42:42.374Z,12.90
2019-03-16T08:45:12.455Z,12.90
2019-03-16T08:47:41.420Z,13.10
2019-03-16T08:50:09.885Z,13.10
2019-03-16T08:52:39.902Z,13.10
2019-03-16T08:55:08.511Z,13.00
2019-03-16T08:57:36.547Z,12.90
2019-03-16T09:00:06.616Z,12.90
2019-03-16T09:02:34.810Z,12.90
2019-03-16T09:05:02.855Z,13.00
2019-03-16T09:07:29.766Z,13.00
2019-03-16T09:09:58.641Z,13.00
2019-03-16T09:12:25.563Z,13.00
2019-03-16T09:15:08.735Z,13.10
2019-03-16T09:17:35.575Z,13.10
2019-03-16T09:20:04.501Z,13.00
2019-03-16T09:22:31.721Z,13.00
2019-03-16T09:24:58.751Z,13.00
2019-03-16T09:27:31.022Z,13.00
2019-03-16T09:29:56.149Z,13.00
2019-03-16T09:32:23.164Z,13.00
2019-03-16T09:34:49.848Z,13.10
2019-03-16T09:37:18.402Z,13.00
2019-03-16T09:39:46.661Z,13.10
2019-03-16T09:42:13.519Z,13.20
2019-03-16T09:44:41.411Z,13.30
2019-03-16T09:47:08.316Z,13.30
2019-03-16T09:49:35.704Z,13.20
2019-03-16T09:52:02.762Z,13.20
2019-03-16T09:54:29.928Z,13.20
2019-03-16T09:57:01.629Z,13.30
2019-03-16T09:59:27.210Z,13.30
2019-03-16T10:01:55.665Z,13.30
2019-03-16T10:04:23.589Z,13.20
2019-03-16T10:06:50.315Z,13.20
2019-03-16T10:09:17.357Z,13.00
2019-03-16T10:11:44.398Z,13.00
2019-03-16T10:14:11.363Z,13.00
2019-03-16T10:16:38.390Z,12.90
2019-03-16T10:19:06.097Z,12.90
2019-03-16T10:21:33.337Z,13.00
2019-03-16T10:24:00.151Z,13.00
2019-03-16T10:26:28.311Z,13.00
2019-03-16T10:28:55.133Z,12.90
2019-03-16T10:31:25.275Z,13.00
2019-03-16T10:33:53.629Z,12.90
2019-03-16T10:36:20.577Z,12.90
2019-03-16T10:38:47.608Z,12.90
2019-03-16T10:41:14.322Z,13.00
2019-03-16T10:43:41.197Z,12.90
2019-03-16T10:46:08.561Z,12.90
2019-03-16T10:48:35.850Z,12.90
2019-03-16T10:51:03.600Z,12.90
2019-03-16T10:53:30.433Z,12.90
2019-03-16T10:55:57.365Z,13.00
2019-03-16T10:58:26.071Z,13.00
2019-03-16T11:00:54.646Z,13.10
2019-03-16T11:03:22.561Z,13.10
2019-03-16T11:05:49.351Z,13.10
2019-03-16T11:08:17.506Z,13.10
2019-03-16T11:10:44.249Z,13.10
2019-03-16T11:13:13.077Z,13.00
2019-03-16T11:15:40.070Z,13.00
2019-03-16T11:18:06.977Z,13.00
2019-03-16T11:20:35.584Z,13.10
2019-03-16T11:23:02.693Z,13.00
2019-03-16T11:25:29.619Z,13.00
2019-03-16T11:27:56.645Z,13.00
2019-03-16T11:30:24.241Z,13.00
2019-03-16T11:32:51.155Z,13.10
2019-03-16T11:35:18.049Z,13.00
2019-03-16T11:37:46.603Z,13.00
2019-03-16T11:40:19.067Z,13.00
2019-03-16T11:42:45.978Z,13.00
2019-03-16T11:45:13.323Z,13.00
2019-03-16T11:47:41.880Z,13.00
2019-03-16T11:50:09.903Z,13.00
2019-03-16T11:52:37.799Z,13.10
2019-03-16T11:55:09.288Z,13.00
2019-03-16T11:57:38.085Z,13.00
2019-03-16T12:00:10.142Z,13.00
2019-03-16T12:02:37.450Z,13.00
2019-03-16T12:05:26.181Z,13.00
2019-03-16T12:07:53.625Z,13.00
2019-03-16T12:10:20.515Z,13.00
2019-03-16T12:12:47.523Z,13.10
2019-03-16T12:15:14.457Z,13.10
2019-03-16T12:17:41.545Z,13.10
2019-03-16T12:20:17.812Z,13.10
2019-03-16T12:22:45.708Z,13.20
2019-03-16T12:25:12.644Z,13.10
2019-03-16T12:27:39.691Z,13.10
2019-03-16T12:30:09.249Z,13.20
2019-03-16T12:32:37.596Z,13.20
2019-03-16T12:35:06.706Z,13.10
2019-03-16T12:37:34.873Z,13.10
2019-03-16T12:40:07.285Z,13.10
2019-03-16T12:42:34.476Z,13.00
2019-03-16T12:45:02.048Z,13.00
2019-03-16T12:47:31.147Z,12.90
2019-03-16T12:49:57.868Z,13.00
2019-03-16T12:52:26.039Z,13.00
2019-03-16T12:54:53.195Z,13.00
2019-03-16T12:57:21.717Z,13.00
2019-03-16T12:59:48.564Z,13.10
2019-03-16T13:02:16.198Z,13.10
2019-03-16T13:04:49.560Z,13.10
2019-03-16T13:07:16.400Z,13.00
2019-03-16T13:09:43.424Z,13.10
2019-03-16T13:12:10.575Z,13.10
2019-03-16T13:14:37.620Z,13.10
2019-03-16T13:17:05.976Z,13.10
2019-03-16T13:19:33.712Z,13.20
2019-03-16T13:22:01.860Z,13.20
2019-03-16T13:24:28.670Z,13.30
2019-03-16T13:26:55.722Z,13.40
2019-03-16T13:29:22.626Z,13.40
2019-03-16T13:31:49.456Z,13.40
2019-03-16T13:34:17.514Z,13.50
2019-03-16T13:36:44.570Z,13.50
2019-03-16T13:39:11.526Z,13.50
2019-03-16T13:41:38.398Z,13.50
2019-03-16T13:44:05.369Z,13.60
2019-03-16T13:46:32.172Z,13.60
2019-03-16T13:48:59.137Z,13.60
2019-03-16T13:51:26.234Z,13.70
2019-03-16T13:53:53.082Z,13.60
2019-03-16T13:56:20.017Z,13.60
2019-03-16T13:58:48.551Z,13.70
2019-03-16T14:01:15.598Z,13.70
2019-03-16T14:03:45.614Z,13.70
2019-03-16T14:06:12.846Z,13.80
2019-03-16T14:08:40.331Z,13.80
2019-03-16T14:11:07.027Z,13.80
2019-03-16T14:13:34.024Z,13.90
2019-03-16T14:16:01.052Z,13.80
2019-03-16T14:18:28.321Z,13.70
2019-03-16T14:20:55.782Z,13.70
2019-03-16T14:23:23.647Z,13.70
2019-03-16T14:25:50.468Z,13.70
2019-03-16T14:28:17.948Z,13.60
2019-03-16T14:30:45.290Z,13.60
2019-03-16T14:33:12.519Z,13.70
2019-03-16T14:35:39.268Z,13.60
2019-03-16T14:38:06.342Z,13.70
2019-03-16T14:40:33.949Z,13.70
2019-03-16T14:43:01.154Z,13.80
2019-03-16T14:45:28.639Z,13.80
2019-03-16T14:47:55.703Z,13.80
2019-03-16T14:50:24.332Z,13.80
2019-03-16T14:52:51.057Z,13.90
2019-03-16T14:55:18.081Z,13.90
2019-03-16T14:57:45.710Z,13.90
2019-03-16T15:00:15.600Z,13.90
2019-03-16T15:02:45.919Z,13.90
2019-03-16T15:05:13.472Z,13.90
2019-03-16T15:07:40.688Z,14.00
2019-03-16T15:10:10.646Z,13.90
2019-03-16T15:12:38.040Z,13.90
2019-03-16T15:15:09.718Z,13.90
2019-03-16T15:17:37.668Z,14.00
2019-03-16T15:20:07.823Z,14.00
2019-03-16T15:22:36.564Z,14.00
2019-03-16T15:25:11.108Z,14.00
2019-03-16T15:27:38.151Z,14.00
2019-03-16T15:30:17.500Z,14.10
2019-03-16T15:32:45.469Z,14.20
2019-03-16T15:35:14.152Z,14.20
2019-03-16T15:37:41.374Z,14.20
2019-03-16T15:40:12.510Z,14.20
2019-03-16T15:42:39.781Z,14.00
2019-03-16T15:45:16.510Z,14.10
2019-03-16T15:47:43.596Z,14.10
2019-03-16T15:50:10.850Z,14.10
2019-03-16T15:52:38.425Z,14.10
2019-03-16T15:55:06.209Z,14.20
2019-03-16T15:57:36.288Z,14.20
2019-03-16T16:00:13.888Z,14.30
2019-03-16T16:02:40.862Z,14.30
2019-03-16T16:05:08.706Z,14.40
2019-03-16T16:07:35.663Z,14.30
2019-03-16T16:10:05.895Z,14.20
2019-03-16T16:12:32.984Z,14.10
2019-03-16T16:14:59.927Z,14.20
2019-03-16T16:17:28.428Z,14.20
2019-03-16T16:19:55.541Z,14.30
2019-03-16T16:22:22.483Z,14.30
2019-03-16T16:24:50.029Z,14.20
2019-03-16T16:27:17.167Z,14.10
2019-03-16T16:29:47.005Z,14.10
2019-03-16T16:32:14.810Z,14.10
2019-03-16T16:34:42.017Z,14.10
2019-03-16T16:37:09.084Z,14.00
2019-03-16T16:39:36.041Z,14.00
2019-03-16T16:42:03.112Z,14.00
2019-03-16T16:44:31.168Z,14.10
2019-03-16T16:46:57.842Z,14.10
2019-03-16T16:49:24.727Z,14.30
2019-03-16T16:51:51.972Z,14.20
2019-03-16T16:54:18.873Z,14.30
2019-03-16T16:56:47.300Z,14.30
2019-03-16T16:59:14.135Z,14.30
2019-03-16T17:01:41.287Z,14.30
2019-03-16T17:04:08.236Z,14.30
2019-03-16T17:06:35.070Z,14.20
2019-03-16T17:09:05.125Z,14.10
2019-03-16T17:11:31.876Z,14.00
2019-03-16T17:13:58.722Z,14.00
2019-03-16T17:16:25.655Z,14.00
2019-03-16T17:18:52.465Z,14.10
2019-03-16T17:21:19.535Z,14.00
2019-03-16T17:23:46.230Z,14.00
2019-03-16T17:26:13.414Z,14.00
2019-03-16T17:28:40.583Z,14.00
2019-03-16T17:31:09.966Z,14.00
2019-03-16T17:33:37.163Z,14.00
2019-03-16T17:36:04.060Z,14.00
2019-03-16T17:38:32.351Z,14.00
2019-03-16T17:41:00.213Z,14.00
2019-03-16T17:43:27.228Z,14.00
2019-03-16T17:45:55.846Z,14.00
2019-03-16T17:48:22.656Z,14.00
2019-03-16T17:50:49.605Z,14.00
2019-03-16T17:53:16.750Z,14.00
2019-03-16T17:55:45.611Z,14.00
2019-03-16T17:58:12.765Z,14.00
2019-03-16T18:00:42.881Z,13.90
2019-03-16T18:03:09.887Z,13.90
2019-03-16T18:05:36.639Z,13.80
2019-03-16T18:08:05.220Z,13.80
2019-03-16T18:10:32.028Z,13.80
2019-03-16T18:13:00.621Z,13.80
2019-03-16T18:15:27.545Z,13.80
2019-03-16T18:17:55.566Z,13.90
2019-03-16T18:20:22.849Z,14.00
2019-03-16T18:22:49.709Z,14.00
2019-03-16T18:25:16.788Z,14.00
2019-03-16T18:27:45.488Z,14.00
2019-03-16T18:30:19.746Z,14.00
2019-03-16T18:32:46.967Z,14.00
2019-03-16T18:35:15.849Z,14.00
2019-03-16T18:37:43.001Z,14.00
2019-03-16T18:40:14.824Z,14.00
2019-03-16T18:42:41.675Z,14.00
2019-03-16T18:45:14.552Z,14.00
2019-03-16T18:47:41.579Z,13.90
2019-03-16T18:50:08.997Z,13.90
2019-03-16T18:52:35.947Z,13.90
2019-03-16T18:55:06.429Z,13.90
2019-03-16T18:57:35.314Z,13.90
2019-03-16T19:00:05.507Z,13.90
2019-03-16T19:02:32.651Z,13.80
2019-03-16T19:04:59.559Z,13.70
2019-03-16T19:07:26.814Z,13.70
2019-03-16T19:09:53.827Z,13.70
2019-03-16T19:12:20.755Z,13.70
2019-03-16T19:14:47.603Z,13.70
2019-03-16T19:17:15.611Z,13.80
2019-03-16T19:19:42.624Z,13.80
2019-03-16T19:22:11.653Z,13.70
2019-03-16T19:24:38.784Z,13.70
2019-03-16T19:27:05.533Z,13.80
2019-03-16T19:29:32.557Z,13.70
2019-03-16T19:31:59.501Z,13.70
2019-03-16T19:34:26.317Z,13.60
2019-03-16T19:36:53.466Z,13.70
2019-03-16T19:39:20.195Z,13.60
2019-03-16T19:41:46.953Z,13.70
2019-03-16T19:44:15.676Z,13.60
2019-03-16T19:46:42.730Z,13.50
2019-03-16T19:49:10.737Z,13.40
2019-03-16T19:51:37.562Z,13.40
2019-03-16T19:54:04.417Z,13.50
2019-03-16T19:56:33.502Z,13.60
2019-03-16T19:59:03.122Z,13.60
2019-03-16T20:01:30.371Z,13.50
2019-03-16T20:03:57.226Z,13.60
2019-03-16T20:06:26.275Z,13.50
2019-03-16T20:08:53.371Z,13.50
2019-03-16T20:11:21.221Z,13.50
2019-03-16T20:13:48.432Z,13.50
2019-03-16T20:16:15.453Z,13.50
2019-03-16T20:18:42.629Z,13.50
2019-03-16T20:21:09.560Z,13.50
2019-03-16T20:23:36.377Z,13.60
2019-03-16T20:26:03.533Z,13.50
2019-03-16T20:28:30.285Z,13.50
2019-03-16T20:30:58.839Z,13.60
2019-03-16T20:33:25.688Z,13.60
2019-03-16T20:35:52.575Z,13.60
2019-03-16T20:38:19.476Z,13.60
2019-03-16T20:40:49.806Z,13.50
2019-03-16T20:43:16.974Z,13.60
2019-03-16T20:45:43.711Z,13.50
2019-03-16T20:48:10.692Z,13.50
2019-03-16T20:50:37.775Z,13.40
2019-03-16T20:53:04.902Z,13.40
2019-03-16T20:55:34.262Z,13.40
2019-03-16T20:58:02.597Z,13.40
2019-03-16T21:00:30.658Z,13.40
2019-03-16T21:02:58.062Z,13.40
2019-03-16T21:05:24.983Z,13.40
2019-03-16T21:07:52.138Z,13.40
2019-03-16T21:10:19.165Z,13.40
2019-03-16T21:12:46.661Z,13.40
2019-03-16T21:15:15.271Z,13.50
2019-03-16T21:17:42.236Z,13.50
2019-03-16T21:20:11.544Z,13.40
2019-03-16T21:22:39.139Z,13.40
2019-03-16T21:25:09.011Z,13.50
2019-03-16T21:27:35.957Z,13.50
2019-03-16T21:30:07.044Z,13.60
2019-03-16T21:32:34.894Z,13.60
2019-03-16T21:35:03.242Z,13.60
2019-03-16T21:37:30.295Z,13.60
2019-03-16T21:39:57.266Z,13.50
2019-03-16T21:42:25.879Z,13.50
2019-03-16T21:44:52.963Z,13.50
2019-03-16T21:47:19.839Z,13.50
2019-03-16T21:49:46.863Z,13.50
2019-03-16T21:52:15.047Z,13.50
2019-03-16T21:54:42.240Z,13.40
2019-03-16T21:57:09.255Z,13.40
2019-03-16T21:59:37.609Z,13.30
2019-03-16T22:02:05.987Z,13.30
2019-03-16T22:04:32.983Z,13.40
2019-03-16T22:06:59.919Z,13.40
2019-03-16T22:09:26.872Z,13.40
2019-03-16T22:11:55.525Z,13.30
2019-03-16T22:14:22.609Z,13.40
2019-03-16T22:16:49.342Z,13.30
2019-03-16T22:19:16.311Z,13.30
2019-03-16T22:21:43.246Z,13.30
2019-03-16T22:24:10.180Z,13.30
2019-03-16T22:26:37.025Z,13.30
2019-03-16T22:29:04.018Z,13.20
2019-03-16T22:31:30.990Z,13.30
2019-03-16T22:33:59.483Z,13.30
2019-03-16T22:36:26.842Z,13.30
2019-03-16T22:38:53.685Z,13.20
2019-03-16T22:41:20.759Z,13.20
2019-03-16T22:43:47.686Z,13.30
2019-03-16T22:46:16.403Z,13.20
2019-03-16T22:48:44.924Z,13.10
2019-03-16T22:51:11.970Z,13.10
2019-03-16T22:53:40.560Z,13.00
2019-03-16T22:56:09.592Z,13.00
2019-03-16T22:58:36.328Z,13.00
2019-03-16T23:01:04.144Z,12.90
2019-03-16T23:03:31.465Z,12.90
2019-03-16T23:06:00.566Z,12.90
2019-03-16T23:08:27.533Z,12.90
2019-03-16T23:10:55.679Z,12.90
2019-03-16T23:13:22.567Z,12.90
2019-03-16T23:15:49.409Z,12.80
2019-03-16T23:18:16.700Z,12.80
2019-03-16T23:20:43.883Z,12.80
2019-03-16T23:23:11.134Z,12.80
2019-03-16T23:25:37.868Z,12.80
2019-03-16T23:28:05.187Z,12.70
2019-03-16T23:30:32.330Z,12.70
2019-03-16T23:33:00.847Z,12.70
2019-03-16T23:35:28.165Z,12.70
2019-03-16T23:37:56.719Z,12.80
2019-03-16T23:40:25.570Z,12.80
2019-03-16T23:42:54.816Z,12.80
2019-03-16T23:45:22.052Z,12.80
2019-03-16T23:47:49.484Z,12.60
2019-03-16T23:50:16.456Z,12.60
2019-03-16T23:52:45.002Z,12.50
2019-03-16T23:55:11.993Z,12.40
2019-03-16T23:57:39.033Z,12.30
